• Join FlightAware (Why Join?)
  • Login
  • US Flag 
12:09AM EDT


 

Airport Tracker/Info


-or-


 

Live Flight TrackerFlight Track Log ✈ FIN666 ✈ 26-Oct-2013 ✈ EKCH / CPH - EFHK / HEL

Flight Track Log - Related Links

Times and Time Zones

All times are in EDT time to prevent confusion due to time zone crossing. See the FIN666 flight status page for this flight to view local times or setup timezone preferences in your user account.

Time Position Orientation Groundspeed Altitude Reporting Facility
EDT Latitude Longitude Course Direction KTS MPH feet Rate Location/Type
07:37AM 55.8486 13.1329 49° Northeast  Level Estimated
07:38AM 55.9251 13.2931 50° Northeast  Level Estimated
07:39AM 56.0014 13.4539 50° Northeast  Level Estimated
07:40AM 56.0763 13.6131 50° Northeast  Level Estimated
07:41AM 56.1511 13.7728 50° Northeast  Level Estimated
07:42AM 56.2256 13.9332 50° Northeast  Level Estimated
07:43AM 56.3000 14.0942 50° Northeast  Level Estimated
07:44AM 56.3799 14.2685 50° Northeast  Level Estimated
07:45AM 56.4596 14.4435 50° Northeast  Level Estimated
07:46AM 56.5390 14.6193 51° Northeast  Level Estimated
07:47AM 56.6182 14.7958 51° Northeast  Level Estimated
07:48AM 56.6971 14.9730 51° Northeast  Level Estimated
07:49AM 56.7758 15.1510 51° Northeast  Level Estimated
07:50AM 56.8542 15.3298 51° Northeast  Level Estimated
07:51AM 56.9323 15.5092 51° Northeast  Level Estimated
07:52AM 57.0102 15.6895 52° Northeast  Level Estimated
07:53AM 57.0879 15.8704 52° Northeast  Level Estimated
07:54AM 57.1653 16.0522 52° Northeast  Level Estimated
07:55AM 57.2424 16.2347 52° Northeast  Level Estimated
07:56AM 57.3192 16.4179 52° Northeast  Level Estimated
07:57AM 57.3958 16.6020 52° Northeast  Level Estimated
07:58AM 57.4721 16.7868 52° Northeast  Level Estimated
07:59AM 57.5482 16.9723 53° Northeast  Level Estimated
08:00AM 57.6239 17.1587 53° Northeast  Level Estimated
08:01AM 57.6994 17.3458 53° Northeast  Level Estimated
08:02AM 57.7747 17.5337 53° Northeast  Level Estimated
08:03AM 57.8496 17.7224 53° Northeast  Level Estimated
08:04AM 57.9243 17.9119 53° Northeast  Level Estimated
08:05AM 57.9986 18.1022 54° Northeast  Level Estimated
08:06AM 58.0727 18.2932 54° Northeast  Level Estimated
08:07AM 58.1465 18.4851 54° Northeast  Level Estimated
08:08AM 58.2200 18.6777 54° Northeast  Level Estimated
08:09AM 58.2932 18.8711 54° Northeast  Level Estimated
08:10AM 58.3662 19.0654 54° Northeast  Level Estimated
08:11AM 58.4388 19.2604 55° Northeast  Level Estimated
08:12AM 58.5111 19.4563 55° Northeast  Level Estimated
08:13AM 58.5832 19.6529 55° Northeast  Level Estimated
08:14AM 58.6549 19.8504 55° Northeast  Level Estimated
08:15AM 58.7263 20.0487 55° Northeast  Level Estimated
08:16AM 58.7975 20.2478 55° Northeast  Level Estimated
08:17AM 58.8683 20.4477 56° Northeast  Level Estimated
08:18AM 58.9388 20.6484 56° Northeast  Level Estimated
08:19AM 59.0090 20.8500 56° Northeast  Level Estimated
08:20AM 59.0778 21.0492 56° Northeast  Level Estimated
08:21AM 59.1463 21.2493 56° Northeast  Level Estimated
08:22AM 59.2145 21.4501 56° Northeast  Level Estimated
08:23AM 59.2824 21.6518 57° Northeast  Level Estimated
08:24AM 59.3500 21.8542 57° Northeast  Level Estimated
08:25AM 59.4172 22.0575 57° Northeast  Level Estimated
08:26AM 59.4841 22.2616 57° Northeast  Level Estimated
08:27AM 59.5508 22.4664 57° Northeast  Level Estimated
08:28AM 59.6171 22.6721 57° Northeast  Level Estimated
08:29AM 59.6830 22.8786 58° Northeast  Level Estimated
08:30AM 59.7487 23.0859 58° Northeast  Level Estimated
08:31AM 59.8140 23.2940 58° Northeast  Level Estimated
08:32AM 59.8790 23.5030 58° Northeast  Level Estimated
08:33AM 59.9437 23.7127 58° Northeast  Level Estimated
08:34AM 60.0080 23.9233 59° Northeast  Level Estimated
08:35AM 60.0720 24.1347 59° Northeast  Level Estimated
08:36AM 60.1356 24.3469 59° Northeast  Level Estimated
08:37AM 60.1989 24.5599 59° Northeast  Level Estimated
08:38AM 60.2619 24.7738 59° Northeast  Level Estimated
08:39AM 60.3172 24.9633 59° Northeast  Level Estimated
08:40AM 60.3172 24.9633 37° Northeast  Level Estimated
08:41AM 60.3172 24.9633 37° Northeast  Level Estimated
08:42AM 60.3172 24.9633 37° Northeast  Level Estimated
08:43AM 60.3172 24.9633 37° Northeast  Level Estimated
08:44AM 60.3172 24.9633 37° Northeast  Level Estimated
08:45AM 60.3172 24.9633 37° Northeast  Level Estimated
08:46AM 60.3172 24.9633 37° Northeast  Level Estimated
08:47AM 60.3172 24.9633 37° Northeast  Level Estimated
08:48AM 60.3172 24.9633 37° Northeast  Level Estimated
08:49AM 60.3172 24.9633 37° Northeast  Level Estimated
08:50AM 60.3172 24.9633 37° Northeast  Level Estimated
08:51AM 60.3172 24.9633 37° Northeast  Level Estimated